Aviation Digital Data Service (ADDS)

Output produced by METARs form (1045 UTC 17 June 2019)
found at http://www.aviationweather.gov/metar/data/
 
Forecast for: HTKJ (KILIMANJARO AIRP, TZ)
Text: TAF HTKJ 170500Z 1706/1806 00000KT 9999 SCT026
Forecast period: 0600 to 0800 UTC 17 June 2019
Forecast type: FROM: standard forecast or significant change
Winds: calm
Visibility: 6 or more miles 10+ km)
Ceiling: at least 12,000 feet AGL
Clouds: scattered clouds at 2600 feet AGL
Weather: no significant weather forecast for this period
Text: BECMG 1708/1710 09005KT
Forecast period: 0800 UTC 17 June 2019 to 0600 UTC 18 June 2019
Forecast type: BECOMING: Conditions expected to become as follows by 1000 UTC 17 June 2019
Winds: from the E (90 degrees) at 6 MPH (5 knots; 2.6 m/s)
Visibility: 6 or more miles 10+ km)
Ceiling: at least 12,000 feet AGL
Clouds: scattered clouds at 2600 feet AGL
Weather: no significant weather forecast for this period